createdAt,value
2018-06-11T00:01:30.051Z,99.90
2018-06-11T00:04:05.616Z,99.90
2018-06-11T00:06:41.185Z,99.90
2018-06-11T00:09:16.771Z,99.90
2018-06-11T00:11:52.405Z,99.90
2018-06-11T00:14:28.116Z,99.90
2018-06-11T00:17:03.604Z,99.90
2018-06-11T00:19:39.005Z,99.90
2018-06-11T00:22:14.564Z,99.90
2018-06-11T00:24:50.112Z,99.90
2018-06-11T00:27:25.694Z,99.90
2018-06-11T00:30:01.277Z,1.00
2018-06-11T00:32:36.867Z,1.00
2018-06-11T00:35:12.443Z,1.00
2018-06-11T00:37:47.903Z,1.00
2018-06-11T00:40:23.560Z,1.00
2018-06-11T00:42:58.953Z,49.90
2018-06-11T00:45:34.450Z,99.90
2018-06-11T00:48:10.038Z,1.00
2018-06-11T00:50:45.575Z,1.00
2018-06-11T00:53:21.242Z,99.90
2018-06-11T00:56:06.001Z,99.90
2018-06-11T00:58:41.547Z,99.90
2018-06-11T01:01:17.088Z,92.20
2018-06-11T01:03:52.667Z,99.90
2018-06-11T01:06:28.325Z,1.00
2018-06-11T01:09:04.042Z,1.00
2018-06-11T01:11:39.593Z,1.00
2018-06-11T01:14:15.248Z,99.90
2018-06-11T01:16:50.807Z,99.90
2018-06-11T01:19:26.273Z,99.90
2018-06-11T01:22:01.906Z,99.90
2018-06-11T01:24:37.480Z,99.90
2018-06-11T01:27:13.033Z,99.90
2018-06-11T01:29:48.695Z,99.90
2018-06-11T01:32:24.367Z,99.90
2018-06-11T01:34:59.803Z,7.10
2018-06-11T01:37:35.442Z,29.70
2018-06-11T01:40:11.105Z,94.60
2018-06-11T01:42:46.723Z,19.40
2018-06-11T01:45:22.404Z,1.00
2018-06-11T01:47:57.883Z,39.80
2018-06-11T01:50:33.323Z,16.80
2018-06-11T01:53:08.759Z,19.10
2018-06-11T01:55:44.319Z,1.00
2018-06-11T01:58:19.915Z,26.50
2018-06-11T02:00:55.612Z,1.00
2018-06-11T02:03:31.249Z,1.00
2018-06-11T02:06:06.869Z,5.10
2018-06-11T02:08:42.556Z,43.90
2018-06-11T02:11:18.016Z,30.80
2018-06-11T02:13:53.678Z,1.00
2018-06-11T02:16:29.360Z,99.90
2018-06-11T02:19:04.943Z,99.90
2018-06-11T02:21:40.425Z,63.20
2018-06-11T02:24:16.049Z,10.10
2018-06-11T02:26:51.623Z,42.20
2018-06-11T02:29:27.134Z,9.20
2018-06-11T02:32:03.009Z,9.90
2018-06-11T02:34:38.610Z,1.00
2018-06-11T02:37:14.036Z,1.00
2018-06-11T02:39:49.751Z,1.00
2018-06-11T02:42:25.204Z,1.00
2018-06-11T02:45:00.673Z,1.00
2018-06-11T02:47:36.361Z,1.00
2018-06-11T02:50:11.756Z,1.00
2018-06-11T02:52:47.160Z,1.00
2018-06-11T02:55:22.700Z,1.00
2018-06-11T02:57:58.256Z,1.00
2018-06-11T03:00:33.763Z,1.00
2018-06-11T03:03:09.231Z,1.00
2018-06-11T03:05:44.960Z,1.00
2018-06-11T03:08:20.410Z,1.00
2018-06-11T03:10:56.012Z,1.00
2018-06-11T03:13:31.454Z,1.00
2018-06-11T03:16:07.096Z,1.00
2018-06-11T03:18:42.606Z,1.00
2018-06-11T03:21:18.119Z,1.00
2018-06-11T03:23:53.603Z,1.00
2018-06-11T03:26:29.201Z,1.00
2018-06-11T03:29:04.787Z,1.00
2018-06-11T03:31:40.284Z,1.00
2018-06-11T03:34:15.699Z,1.00
2018-06-11T03:36:51.140Z,1.00
2018-06-11T03:39:26.572Z,1.00
2018-06-11T03:44:37.203Z,1.00
2018-06-11T03:47:12.782Z,1.00
2018-06-11T03:49:48.300Z,1.00
2018-06-11T03:52:23.821Z,1.00
2018-06-11T03:54:59.363Z,1.00
2018-06-11T03:57:34.847Z,1.00
2018-06-11T04:00:10.383Z,1.00
2018-06-11T04:02:46.028Z,1.00
2018-06-11T04:05:21.490Z,1.00
2018-06-11T04:07:57.123Z,1.00
2018-06-11T04:10:32.685Z,1.00
2018-06-11T04:13:08.228Z,1.00
2018-06-11T04:15:43.608Z,1.00
2018-06-11T04:18:19.220Z,1.00
2018-06-11T04:20:54.770Z,1.00
2018-06-11T04:23:30.407Z,1.00
2018-06-11T04:26:05.904Z,1.00
2018-06-11T04:28:41.917Z,1.00
2018-06-11T04:31:17.316Z,1.00
2018-06-11T04:33:52.776Z,1.00
2018-06-11T04:36:28.326Z,1.00
2018-06-11T04:39:04.697Z,1.00
2018-06-11T04:41:40.136Z,1.00
2018-06-11T04:44:16.706Z,99.90
2018-06-11T04:46:52.265Z,99.90
2018-06-11T04:49:27.746Z,99.90
2018-06-11T04:52:03.244Z,99.90
2018-06-11T04:54:38.808Z,99.90
2018-06-11T04:57:14.292Z,99.90
2018-06-11T04:59:49.804Z,99.90
2018-06-11T05:02:25.400Z,99.90
2018-06-11T05:05:00.893Z,99.90
2018-06-11T05:07:36.429Z,99.90
2018-06-11T05:10:12.010Z,99.90
2018-06-11T05:12:47.452Z,99.90
2018-06-11T05:15:23.090Z,99.90
2018-06-11T05:17:58.677Z,99.90
2018-06-11T05:20:34.355Z,99.90
2018-06-11T05:23:09.805Z,99.90
2018-06-11T05:25:45.257Z,99.90
2018-06-11T05:28:20.883Z,99.90
2018-06-11T05:30:56.389Z,99.90
2018-06-11T05:33:31.893Z,99.90
2018-06-11T05:36:07.655Z,99.90
2018-06-11T05:38:43.224Z,99.90
2018-06-11T05:41:18.707Z,99.90
2018-06-11T05:43:54.371Z,99.90
2018-06-11T05:46:29.775Z,99.90
2018-06-11T05:49:05.288Z,99.90
2018-06-11T05:51:40.792Z,99.90
2018-06-11T05:54:16.325Z,99.90
2018-06-11T05:56:52.009Z,99.90
2018-06-11T05:59:27.506Z,99.90
2018-06-11T06:02:03.007Z,99.90
2018-06-11T06:04:38.498Z,99.90
2018-06-11T06:07:14.012Z,99.90
2018-06-11T06:09:49.591Z,99.90
2018-06-11T06:12:25.280Z,99.90
2018-06-11T06:15:00.804Z,99.90
2018-06-11T06:17:36.328Z,99.90
2018-06-11T06:20:11.780Z,99.90
2018-06-11T06:22:47.576Z,99.90
2018-06-11T06:25:23.060Z,99.90
2018-06-11T06:27:58.533Z,99.90
2018-06-11T06:30:34.131Z,99.90
2018-06-11T06:33:09.707Z,99.90
2018-06-11T06:35:45.314Z,99.90
2018-06-11T06:38:21.001Z,99.90
2018-06-11T06:40:56.674Z,99.90
2018-06-11T06:43:32.092Z,99.90
2018-06-11T06:46:07.872Z,99.90
2018-06-11T06:48:43.616Z,99.90
2018-06-11T06:51:19.193Z,99.90
2018-06-11T06:53:54.837Z,99.90
2018-06-11T06:56:30.301Z,99.90
2018-06-11T06:59:05.896Z,99.90
2018-06-11T07:01:41.486Z,99.90
2018-06-11T07:04:17.140Z,99.90
2018-06-11T07:06:54.238Z,99.90
2018-06-11T07:09:29.861Z,99.90
2018-06-11T07:12:05.467Z,99.90
2018-06-11T07:14:41.100Z,99.90
2018-06-11T07:17:16.697Z,99.90
2018-06-11T07:19:52.262Z,99.90
2018-06-11T07:22:27.708Z,99.90
2018-06-11T07:25:03.257Z,99.90
2018-06-11T07:27:38.789Z,99.90
2018-06-11T07:30:14.344Z,99.90
2018-06-11T07:32:49.928Z,99.90
2018-06-11T07:35:26.416Z,99.90
2018-06-11T07:38:01.868Z,99.90
2018-06-11T07:40:37.361Z,99.90
2018-06-11T07:43:12.795Z,99.90
2018-06-11T07:45:48.320Z,99.90
2018-06-11T07:48:23.801Z,99.90
2018-06-11T07:50:59.570Z,99.90
2018-06-11T07:53:34.985Z,99.90
2018-06-11T07:56:10.593Z,99.90
2018-06-11T07:58:46.190Z,99.90
2018-06-11T08:01:23.387Z,99.90
2018-06-11T08:03:59.097Z,99.90
2018-06-11T08:06:34.597Z,99.90
2018-06-11T08:09:10.075Z,99.90
2018-06-11T08:11:45.784Z,99.90
2018-06-11T08:14:21.733Z,99.90
2018-06-11T08:16:57.529Z,99.90
2018-06-11T08:19:33.120Z,99.90
2018-06-11T08:22:08.633Z,99.90
2018-06-11T08:24:44.112Z,99.90
2018-06-11T08:27:19.811Z,99.90
2018-06-11T08:29:55.308Z,99.90
2018-06-11T08:32:30.763Z,99.90
2018-06-11T08:35:06.337Z,99.90
2018-06-11T08:37:42.091Z,99.90
2018-06-11T08:40:17.736Z,99.90
2018-06-11T08:42:53.303Z,99.90
2018-06-11T08:45:28.825Z,99.90
2018-06-11T08:48:04.575Z,99.90
2018-06-11T08:50:40.040Z,99.90
2018-06-11T08:53:15.587Z,99.90
2018-06-11T08:55:51.110Z,99.90
2018-06-11T08:58:26.664Z,99.90
2018-06-11T09:01:02.290Z,99.90
2018-06-11T09:03:37.844Z,99.90
2018-06-11T09:06:13.593Z,99.90
2018-06-11T09:08:49.177Z,99.90
2018-06-11T09:11:24.992Z,99.90
2018-06-11T09:14:00.459Z,99.90
2018-06-11T09:16:35.917Z,99.90
2018-06-11T09:19:11.440Z,99.90
2018-06-11T09:21:46.905Z,99.90
2018-06-11T09:24:22.540Z,99.90
2018-06-11T09:26:58.033Z,99.90
2018-06-11T09:29:33.546Z,99.90
2018-06-11T09:32:09.028Z,99.90
2018-06-11T09:34:44.605Z,99.90
2018-06-11T09:37:20.204Z,99.90
2018-06-11T09:39:55.757Z,99.90
2018-06-11T09:42:31.451Z,99.90
2018-06-11T09:45:06.929Z,99.90
2018-06-11T09:47:42.510Z,99.90
2018-06-11T09:50:18.070Z,99.90
2018-06-11T09:52:53.481Z,99.90
2018-06-11T09:55:28.949Z,99.90
2018-06-11T09:58:04.495Z,99.90
2018-06-11T10:00:40.167Z,99.90
2018-06-11T10:03:15.689Z,99.90
2018-06-11T10:05:51.333Z,99.90
2018-06-11T10:08:26.954Z,99.90
2018-06-11T10:11:02.424Z,99.90
2018-06-11T10:13:38.033Z,99.90
2018-06-11T10:16:13.631Z,99.90
2018-06-11T10:18:49.245Z,99.90
2018-06-11T10:21:24.735Z,99.90
2018-06-11T10:24:00.249Z,99.90
2018-06-11T10:26:35.967Z,99.90
2018-06-11T10:29:11.563Z,99.90
2018-06-11T10:31:47.032Z,99.90
2018-06-11T10:34:22.557Z,99.90
2018-06-11T10:36:58.189Z,99.90
2018-06-11T10:39:33.683Z,99.90
2018-06-11T10:42:09.330Z,99.90
2018-06-11T10:44:44.956Z,99.90
2018-06-11T10:47:20.524Z,99.90
2018-06-11T10:49:56.179Z,99.90
2018-06-11T10:52:31.738Z,99.90
2018-06-11T10:55:07.312Z,99.90
2018-06-11T10:57:42.924Z,99.90
2018-06-11T11:00:18.332Z,99.90
2018-06-11T11:02:53.870Z,99.90
2018-06-11T11:05:29.529Z,99.90
2018-06-11T11:08:05.204Z,99.90
2018-06-11T11:10:40.809Z,99.90
2018-06-11T11:13:31.671Z,99.90
2018-06-11T11:16:07.133Z,99.90
2018-06-11T11:18:42.773Z,99.90
2018-06-11T11:21:18.492Z,99.90
2018-06-11T11:23:54.159Z,99.90
2018-06-11T11:26:29.845Z,99.90
2018-06-11T11:29:05.725Z,99.90
2018-06-11T11:31:41.253Z,99.90
2018-06-11T11:34:16.815Z,99.90
2018-06-11T11:36:52.244Z,99.90
2018-06-11T11:39:27.917Z,99.90
2018-06-11T11:42:03.585Z,99.90
2018-06-11T11:44:39.070Z,99.90
2018-06-11T11:47:14.773Z,99.90
2018-06-11T11:49:50.383Z,99.90
2018-06-11T11:52:25.814Z,99.90
2018-06-11T11:55:01.269Z,99.90
2018-06-11T11:57:36.815Z,99.90
2018-06-11T12:00:12.394Z,99.90
2018-06-11T12:02:47.869Z,99.90
2018-06-11T12:05:23.484Z,99.90
2018-06-11T12:07:58.903Z,99.90
2018-06-11T12:10:34.536Z,99.90
2018-06-11T12:13:10.053Z,99.90
2018-06-11T12:15:45.682Z,99.90
2018-06-11T12:18:21.221Z,99.90
2018-06-11T12:20:56.700Z,99.90
2018-06-11T12:23:32.344Z,99.90
2018-06-11T12:26:07.957Z,99.90
2018-06-11T12:28:43.487Z,99.90
2018-06-11T12:31:19.191Z,99.90
2018-06-11T12:33:54.641Z,99.90
2018-06-11T12:36:30.145Z,99.90
2018-06-11T12:39:07.876Z,99.90
2018-06-11T12:41:43.384Z,99.90
2018-06-11T12:44:19.040Z,99.90
2018-06-11T12:46:54.705Z,99.90
2018-06-11T12:49:30.189Z,99.90
2018-06-11T12:52:05.888Z,99.90
2018-06-11T12:54:41.501Z,99.90
2018-06-11T12:57:16.992Z,99.90
2018-06-11T12:59:52.475Z,99.90
2018-06-11T13:02:27.940Z,99.90
2018-06-11T13:05:03.585Z,99.90
2018-06-11T13:07:39.125Z,99.90
2018-06-11T13:10:14.588Z,99.90
2018-06-11T13:12:50.235Z,99.90
2018-06-11T13:15:25.847Z,99.90
2018-06-11T13:18:01.850Z,99.90
2018-06-11T13:20:37.557Z,99.90
2018-06-11T13:23:13.264Z,99.90
2018-06-11T13:25:48.765Z,99.90
2018-06-11T13:28:24.402Z,99.90
2018-06-11T13:30:59.957Z,99.90
2018-06-11T13:33:35.661Z,99.90
2018-06-11T13:36:11.388Z,99.90
2018-06-11T13:38:47.013Z,99.90
2018-06-11T13:41:22.485Z,99.90
2018-06-11T13:43:58.120Z,99.90
2018-06-11T13:46:33.676Z,99.90
2018-06-11T13:49:09.163Z,99.90
2018-06-11T13:51:44.820Z,99.90
2018-06-11T13:54:20.477Z,99.90
2018-06-11T13:56:55.952Z,99.90
2018-06-11T13:59:31.425Z,99.90
2018-06-11T14:02:07.117Z,99.90
2018-06-11T14:04:42.589Z,99.90
2018-06-11T14:07:18.195Z,99.90
2018-06-11T14:09:53.849Z,99.90
2018-06-11T14:12:29.367Z,99.90
2018-06-11T14:15:05.008Z,99.90
2018-06-11T14:17:40.519Z,99.90
2018-06-11T14:20:16.143Z,99.90
2018-06-11T14:22:51.648Z,99.90
2018-06-11T14:25:27.148Z,99.90
2018-06-11T14:28:02.731Z,99.90
2018-06-11T14:30:38.104Z,99.90
2018-06-11T14:33:13.589Z,99.90
2018-06-11T14:35:49.081Z,99.90
2018-06-11T14:38:24.638Z,99.90
2018-06-11T14:41:00.228Z,99.90
2018-06-11T14:43:35.644Z,99.90
2018-06-11T14:46:11.196Z,99.90
2018-06-11T14:48:46.629Z,99.90
2018-06-11T14:51:22.191Z,99.90
2018-06-11T14:53:57.785Z,99.90
2018-06-11T14:56:33.600Z,99.90
2018-06-11T14:59:09.036Z,99.90
2018-06-11T15:01:44.653Z,99.90
2018-06-11T15:04:20.104Z,99.90
2018-06-11T15:06:55.728Z,99.90
2018-06-11T15:09:31.364Z,99.90
2018-06-11T15:12:07.009Z,99.90
2018-06-11T15:14:42.552Z,99.90
2018-06-11T15:17:18.192Z,99.90
2018-06-11T15:19:53.741Z,99.90
2018-06-11T15:22:29.308Z,99.90
2018-06-11T15:25:04.772Z,99.90
2018-06-11T15:27:40.309Z,99.90
2018-06-11T15:30:15.958Z,99.90
2018-06-11T15:32:51.581Z,99.90
2018-06-11T15:35:27.728Z,99.90
2018-06-11T15:38:05.119Z,99.90
2018-06-11T15:40:40.660Z,99.90
2018-06-11T15:43:16.233Z,99.90
2018-06-11T15:45:52.246Z,99.90
2018-06-11T15:48:27.908Z,99.90
2018-06-11T15:51:03.481Z,99.90
2018-06-11T15:53:38.913Z,99.90
2018-06-11T15:56:14.329Z,99.90
2018-06-11T15:58:49.853Z,99.90
2018-06-11T16:01:25.428Z,99.90
2018-06-11T16:04:01.051Z,99.90
2018-06-11T16:06:36.796Z,99.90
2018-06-11T16:09:12.259Z,99.90
2018-06-11T16:11:47.748Z,99.90
2018-06-11T16:14:23.334Z,99.90
2018-06-11T16:16:58.716Z,99.90
2018-06-11T16:19:34.442Z,99.90
2018-06-11T16:22:09.916Z,99.90
2018-06-11T16:24:45.655Z,99.90
2018-06-11T16:27:21.357Z,99.90
2018-06-11T16:29:57.008Z,99.90
2018-06-11T16:32:32.596Z,99.90
2018-06-11T16:35:08.210Z,99.90
2018-06-11T16:37:43.765Z,99.90
2018-06-11T16:40:19.296Z,99.90
2018-06-11T16:42:54.845Z,99.90
2018-06-11T16:45:30.336Z,99.90
2018-06-11T16:48:06.056Z,99.90
2018-06-11T16:50:41.533Z,99.90
2018-06-11T16:53:17.153Z,99.90
2018-06-11T16:55:52.605Z,99.90
2018-06-11T16:58:28.100Z,99.90
2018-06-11T17:01:03.632Z,99.90
2018-06-11T17:03:39.298Z,99.90
2018-06-11T17:06:15.909Z,99.90
2018-06-11T17:08:51.320Z,99.90
2018-06-11T17:11:27.465Z,99.90
2018-06-11T17:14:02.951Z,99.90
2018-06-11T17:16:38.556Z,99.90
2018-06-11T17:19:20.416Z,99.90
2018-06-11T17:22:00.664Z,99.90
2018-06-11T17:24:40.339Z,99.90
2018-06-11T17:27:18.671Z,99.90
2018-06-11T17:30:03.155Z,99.90
2018-06-11T17:32:45.486Z,99.90
2018-06-11T17:35:39.535Z,99.90
2018-06-11T17:38:15.356Z,99.90
2018-06-11T17:40:58.748Z,99.90
2018-06-11T17:43:44.826Z,99.90
2018-06-11T17:46:21.993Z,99.90
2018-06-11T17:48:58.397Z,99.90
2018-06-11T17:51:34.118Z,99.90
2018-06-11T17:54:09.920Z,99.90
2018-06-11T17:56:45.581Z,99.90
2018-06-11T17:59:21.070Z,99.90
2018-06-11T18:01:56.538Z,99.90
2018-06-11T18:04:32.185Z,99.90
2018-06-11T18:07:07.847Z,99.90
2018-06-11T18:09:43.982Z,99.90
2018-06-11T18:12:20.237Z,99.90
2018-06-11T18:14:56.402Z,99.90
2018-06-11T18:17:32.947Z,99.90
2018-06-11T18:20:09.697Z,99.90
2018-06-11T18:22:46.140Z,99.90
2018-06-11T18:25:22.922Z,99.90
2018-06-11T18:27:59.629Z,99.90
2018-06-11T18:30:36.500Z,99.90
2018-06-11T18:33:13.274Z,99.90
2018-06-11T18:35:49.995Z,99.90
2018-06-11T18:38:26.947Z,99.90
2018-06-11T18:41:04.591Z,99.90
2018-06-11T18:43:41.421Z,99.90
2018-06-11T18:46:18.499Z,99.90
2018-06-11T18:48:56.046Z,99.90
2018-06-11T18:51:33.779Z,99.90
2018-06-11T18:54:10.450Z,99.90
2018-06-11T18:56:48.081Z,99.90
2018-06-11T18:59:25.008Z,99.90
2018-06-11T19:02:02.045Z,99.90
2018-06-11T19:04:38.837Z,99.90
2018-06-11T19:07:15.778Z,99.90
2018-06-11T19:09:52.580Z,99.90
2018-06-11T19:12:30.313Z,99.90
2018-06-11T19:15:07.089Z,99.90
2018-06-11T19:17:46.991Z,99.90
2018-06-11T19:20:24.312Z,99.90
2018-06-11T19:23:02.922Z,99.90
2018-06-11T19:25:39.789Z,99.90
2018-06-11T19:28:16.596Z,99.90
2018-06-11T19:30:53.476Z,99.90
2018-06-11T19:33:30.368Z,99.90
2018-06-11T19:36:08.427Z,99.90
2018-06-11T19:38:46.283Z,99.90
2018-06-11T19:41:23.770Z,99.90
2018-06-11T19:44:00.726Z,99.90
2018-06-11T19:46:37.630Z,99.90
2018-06-11T19:49:14.746Z,99.90
2018-06-11T19:51:51.566Z,99.90
2018-06-11T19:54:28.896Z,99.90
2018-06-11T19:57:07.644Z,99.90
2018-06-11T19:59:45.179Z,99.90
2018-06-11T20:02:22.799Z,99.90
2018-06-11T20:04:59.744Z,99.90
2018-06-11T20:07:37.768Z,99.90
2018-06-11T20:12:50.686Z,99.90
2018-06-11T20:15:27.653Z,99.90
2018-06-11T20:18:04.328Z,99.90
2018-06-11T20:20:41.206Z,99.90
2018-06-11T20:23:17.990Z,99.90
2018-06-11T20:25:54.954Z,99.90
2018-06-11T20:28:31.692Z,99.90
2018-06-11T20:31:09.437Z,99.90
2018-06-11T20:33:46.189Z,99.90
2018-06-11T20:36:22.936Z,99.90
2018-06-11T20:38:59.775Z,99.90
2018-06-11T20:41:35.512Z,99.90
2018-06-11T20:44:10.999Z,99.90
2018-06-11T20:46:46.677Z,99.90
2018-06-11T20:49:22.188Z,99.90
2018-06-11T20:51:57.727Z,99.90
2018-06-11T20:54:33.121Z,99.90
2018-06-11T20:57:08.708Z,99.90
2018-06-11T20:59:44.143Z,99.90
2018-06-11T21:02:19.765Z,99.90
2018-06-11T21:04:55.403Z,99.90
2018-06-11T21:07:30.929Z,99.90
2018-06-11T21:10:06.539Z,99.90
2018-06-11T21:12:42.053Z,99.90
2018-06-11T21:15:17.739Z,99.90
2018-06-11T21:17:53.305Z,99.90
2018-06-11T21:20:28.935Z,99.90
2018-06-11T21:23:04.907Z,99.90
2018-06-11T21:25:40.548Z,99.90
2018-06-11T21:28:16.293Z,99.90
2018-06-11T21:30:52.075Z,99.90
2018-06-11T21:33:27.616Z,99.90
2018-06-11T21:36:03.567Z,99.90
2018-06-11T21:38:39.994Z,99.90
2018-06-11T21:41:15.615Z,99.90
2018-06-11T21:43:51.258Z,99.90
2018-06-11T21:46:26.808Z,99.90
2018-06-11T21:49:03.331Z,99.90
2018-06-11T21:51:38.990Z,99.90
2018-06-11T21:54:14.503Z,99.90
2018-06-11T21:56:49.919Z,99.90
2018-06-11T21:59:25.587Z,99.90
2018-06-11T22:02:01.161Z,99.90
2018-06-11T22:04:36.868Z,99.90
2018-06-11T22:07:12.337Z,99.90
2018-06-11T22:09:48.077Z,99.90
2018-06-11T22:12:23.641Z,99.90
2018-06-11T22:14:59.231Z,99.90
2018-06-11T22:17:34.859Z,99.90
2018-06-11T22:20:10.373Z,99.90
2018-06-11T22:22:45.850Z,99.90
2018-06-11T22:25:21.544Z,99.90
2018-06-11T22:28:04.996Z,99.90
2018-06-11T22:30:40.835Z,99.90
2018-06-11T22:33:18.493Z,99.90
2018-06-11T22:35:54.476Z,99.90
2018-06-11T22:38:30.731Z,99.90
2018-06-11T22:41:06.283Z,99.90
2018-06-11T22:43:42.116Z,99.90
2018-06-11T22:46:17.756Z,99.90
2018-06-11T22:48:53.461Z,99.90
2018-06-11T22:51:29.719Z,99.90
2018-06-11T22:54:05.796Z,99.90
2018-06-11T22:56:41.375Z,99.90
2018-06-11T22:59:17.008Z,99.90
2018-06-11T23:01:52.703Z,99.90
2018-06-11T23:04:28.306Z,99.90
2018-06-11T23:07:04.057Z,99.90
2018-06-11T23:09:39.674Z,99.90
2018-06-11T23:12:15.196Z,99.90
2018-06-11T23:14:50.768Z,99.90
2018-06-11T23:17:26.500Z,99.90
2018-06-11T23:20:02.019Z,99.90
2018-06-11T23:22:37.571Z,99.90
2018-06-11T23:25:13.151Z,99.90
2018-06-11T23:27:48.604Z,99.90
2018-06-11T23:30:24.136Z,99.90
2018-06-11T23:32:59.545Z,99.90
2018-06-11T23:35:35.093Z,99.90
2018-06-11T23:38:10.593Z,99.90
2018-06-11T23:40:46.053Z,99.90
2018-06-11T23:43:44.192Z,99.90
2018-06-11T23:46:42.423Z,99.90
2018-06-11T23:49:40.897Z,99.90
2018-06-11T23:52:22.520Z,99.90
2018-06-11T23:54:58.225Z,99.90
2018-06-11T23:57:33.768Z,99.90
